| time (UTC) | temp F | wind direction | speed knots | gust knots | rain 1hr in | rain 24hr in | rain mn in | humidity % | barometer mb |
| 20260506034545 | 54 | 18 | 0.9 | 2.6 | 0.00 | 0.00 | 0.00 | 55 | 1011.5 |
| 20260506033043 | 53 | 18 | 0.9 | 3.5 | 0.00 | 0.00 | 0.00 | 57 | 1011.3 |
| 20260506031542 | 53 | 18 | 1.7 | 4.3 | 0.00 | 0.00 | 0.00 | 59 | 1011.1 |
| 20260506030042 | 54 | 18 | 1.7 | 4.3 | 0.00 | 0.00 | 0.00 | 60 | 1010.9 |
| 20260506024542 | 55 | 18 | 1.7 | 7.0 | 0.00 | 0.00 | 0.00 | 57 | 1010.8 |
| 20260506023040 | 57 | 18 | 3.5 | 6.1 | 0.00 | 0.00 | 0.00 | 53 | 1010.8 |
| 20260506021539 | 58 | 17 | 3.5 | 6.1 | 0.00 | 0.00 | 0.00 | 49 | 1010.7 |
| 20260506020039 | 59 | 18 | 4.3 | 10.4 | 0.00 | 0.00 | 0.00 | 48 | 1010.8 |
| 20260506014546 | 60 | 18 | 1.7 | 3.5 | 0.00 | 0.00 | 0.00 | 43 | 1010.7 |
| 20260506013039 | 59 | 18 | 0.9 | 3.5 | 0.00 | 0.00 | 0.00 | 44 | 1010.7 |
| 20260506011540 | 58 | 18 | 1.7 | 6.1 | 0.00 | 0.00 | 0.00 | 47 | 1010.9 |
| 20260506010036 | 59 | 18 | 2.6 | 8.7 | 0.00 | 0.00 | 0.00 | 45 | 1010.8 |
| 20260506004541 | 60 | 17 | 3.5 | 7.8 | 0.00 | 0.00 | 0.00 | 43 | 1010.9 |
| 20260506003034 | 61 | 18 | 5.2 | 10.4 | 0.00 | 0.00 | 0.00 | 43 | 1010.8 |
| 20260506001538 | 59 | 18 | 0.0 | 4.3 | 0.00 | 0.00 | 0.00 | 49 | 1011.0 |
| 20260506000037 | 60 | 18 | 0.9 | 7.0 | 0.00 | 0.00 | 0.00 | 51 | 1011.1 |
| 20260505234527 | 57 | 18 | 1.7 | 5.2 | 0.00 | 0.00 | 0.00 | 53 | 1011.1 |
| 20260505233026 | 55 | 18 | 0.9 | 7.8 | 0.00 | 0.00 | 0.00 | 60 | 1011.2 |
| 20260505231525 | 57 | 18 | 1.7 | 4.3 | 0.00 | 0.00 | 0.00 | 61 | 1011.4 |
| 20260505230032 | 57 | 18 | 0.9 | 4.3 | 0.00 | 0.00 | 0.00 | 58 | 1011.6 |
| 20260505224534 | 58 | 18 | 0.9 | 3.5 | 0.00 | 0.00 | 0.00 | 59 | 1011.7 |
| 20260505223028 | 56 | 18 | 0.9 | 4.3 | 0.00 | 0.00 | 0.00 | 60 | 1011.8 |
| 20260505221517 | 55 | 18 | 0.9 | 4.3 | 0.00 | 0.00 | 0.00 | 61 | 1012.0 |
| 20260505220025 | 54 | 18 | 4.3 | 7.8 | 0.00 | 0.00 | 0.00 | 67 | 1012.1 |
| 20260505214518 | 53 | 18 | 4.3 | 7.0 | 0.00 | 0.00 | 0.00 | 69 | 1012.2 |
| 20260505213011 | 52 | 18 | 2.6 | 6.1 | 0.00 | 0.00 | 0.00 | 67 | 1012.4 |
| 20260505211511 | 53 | 18 | 0.0 | 3.5 | 0.00 | 0.00 | 0.00 | 69 | 1012.4 |
| 20260505210008 | 51 | 18 | 0.0 | 3.5 | 0.00 | 0.00 | 0.00 | 74 | 1012.5 |
| 20260505204510 | 50 | 17 | 1.7 | 3.5 | 0.00 | 0.00 | 0.00 | 77 | 1012.6 |
| 20260505203002 | 49 | 17 | 0.9 | 5.2 | 0.00 | 0.00 | 0.00 | 81 | 1012.6 |
| 20260505201607 | 49 | 17 | 3.5 | 6.1 | 0.00 | 0.00 | 0.00 | 80 | 1012.6 |
| 20260505200057 | 47 | 18 | 0.9 | 3.5 | 0.00 | 0.00 | 0.00 | 84 | 1012.8 |
| 20260505194555 | 47 | 17 | 0.9 | 4.3 | 0.00 | 0.00 | 0.00 | 84 | 1012.8 |
| 20260505193052 | 46 | 17 | 0.0 | 3.5 | 0.00 | 0.00 | 0.00 | 88 | 1012.8 |
| 20260505191555 | 45 | 17 | 0.0 | 4.3 | 0.00 | 0.00 | 0.00 | 87 | 1012.7 |
| 20260505190103 | 45 | 17 | 0.9 | 5.2 | 0.00 | 0.00 | 0.00 | 90 | 1012.5 |
| 20260505184559 | 45 | 17 | 2.6 | 6.1 | 0.00 | 0.00 | 0.00 | 89 | 1012.4 |
| 20260505183050 | 44 | 17 | 0.9 | 3.5 | 0.00 | 0.00 | 0.00 | 90 | 1012.4 |
| 20260505181541 | 43 | 17 | 0.9 | 3.5 | 0.00 | 0.00 | 0.00 | 92 | 1012.4 |
| 20260505180042 | 43 | 17 | 2.6 | 6.1 | 0.00 | 0.00 | 0.00 | 93 | 1012.3 |
| 20260505174541 | 43 | 17 | 4.3 | 7.0 | 0.00 | 0.00 | 0.00 | 93 | 1012.0 |
| 20260505173039 | 42 | 18 | 2.6 | 7.0 | 0.00 | 0.00 | 0.00 | 95 | 1011.8 |
| 20260505171539 | 42 | 18 | 2.6 | 7.8 | 0.00 | 0.00 | 0.00 | 95 | 1011.6 |
| 20260505170033 | 41 | 18 | 4.3 | 7.8 | 0.00 | 0.00 | 0.00 | 95 | 1011.4 |
| 20260505164535 | 41 | 17 | 2.6 | 5.2 | 0.00 | 0.00 | 0.00 | 95 | 1011.5 |
| 20260505163029 | 40 | 17 | 2.6 | 4.3 | 0.00 | 0.00 | 0.00 | 95 | 1011.4 |
| 20260505161524 | 40 | 17 | 1.7 | 6.1 | 0.00 | 0.00 | 0.00 | 95 | 1011.2 |
| 20260505153026 | 40 | 17 | 0.0 | 1.7 | 0.00 | 0.00 | 0.00 | 95 | 1010.8 |
| 20260505151518 | 40 | 17 | 0.0 | 2.6 | 0.00 | 0.00 | 0.00 | 95 | 1010.6 |
| 20260505124607 | 38 | 17 | 5.2 | 7.8 | 0.00 | 0.00 | 0.00 | 95 | 1008.5 |
| 20260505123112 | 38 | 17 | 3.5 | 7.0 | 0.00 | 0.00 | 0.00 | 95 | 1008.4 |
| 20260505121557 | 38 | 18 | 3.5 | 7.0 | 0.00 | 0.00 | 0.00 | 95 | 1008.4 |
| 20260505120057 | 38 | 18 | 0.9 | 4.3 | 0.00 | 0.00 | 0.00 | 95 | 1008.5 |
| 20260505114602 | 38 | 18 | 0.0 | 3.5 | 0.00 | 0.00 | 0.00 | 95 | 1008.4 |
| 20260505113057 | 38 | 17 | 1.7 | 4.3 | 0.00 | 0.00 | 0.00 | 95 | 1008.4 |
| 20260505111600 | 38 | 17 | 0.0 | 3.5 | 0.00 | 0.00 | 0.00 | 95 | 1008.4 |
| 20260505101553 | 38 | 18 | 0.0 | 0.9 | 0.00 | 0.00 | 0.00 | 95 | 1008.5 |
| 20260505100059 | 38 | 17 | 0.0 | 1.7 | 0.00 | 0.00 | 0.00 | 95 | 1008.4 |
| 20260505094551 | 38 | 17 | 0.0 | 3.5 | 0.00 | 0.00 | 0.00 | 95 | 1008.7 |
| 20260505093050 | 38 | 18 | 0.0 | 0.9 | 0.00 | 0.00 | 0.00 | 95 | 1008.6 |
| 20260505091550 | 38 | 18 | 0.0 | 4.3 | 0.00 | 0.00 | 0.00 | 95 | 1008.7 |
| 20260505090100 | 38 | 17 | 2.6 | 5.2 | 0.00 | 0.00 | 0.00 | 95 | 1008.2 |
| 20260505084547 | 38 | 17 | 0.0 | 2.6 | 0.00 | 0.00 | 0.00 | 95 | 1008.6 |
| 20260505083046 | 38 | 17 | 0.0 | 0.9 | 0.00 | 0.00 | 0.00 | 95 | 1008.8 |
| 20260505081548 | 38 | 17 | 1.7 | 3.5 | 0.00 | 0.00 | 0.00 | 95 | 1008.8 |
| 20260505080052 | 38 | 17 | 0.9 | 5.2 | 0.00 | 0.00 | 0.00 | 94 | 1008.7 |
| 20260505074543 | 38 | 17 | 5.2 | 7.8 | 0.00 | 0.00 | 0.00 | 94 | 1008.7 |
| 20260505073052 | 38 | 17 | 2.6 | 4.3 | 0.00 | 0.00 | 0.00 | 94 | 1008.4 |
| 20260505071537 | 38 | 18 | 0.0 | 5.2 | 0.00 | 0.00 | 0.00 | 93 | 1009.3 |
| 20260505070034 | 39 | 18 | 0.0 | 6.1 | 0.00 | 0.00 | 0.00 | 93 | 1008.8 |
| 20260505064532 | 39 | 18 | 0.0 | 4.3 | 0.00 | 0.00 | 0.00 | 92 | 1008.8 |
| 20260505063034 | 38 | 18 | 0.0 | 4.3 | 0.00 | 0.00 | 0.00 | 93 | 1008.6 |
| 20260505061531 | 38 | 18 | 0.9 | 2.6 | 0.00 | 0.00 | 0.00 | 92 | 1008.5 |
| 20260505060034 | 39 | 17 | 0.0 | 7.8 | 0.00 | 0.00 | 0.00 | 91 | 1008.4 |
| 20260505054529 | 39 | 17 | 4.3 | 12.2 | 0.00 | 0.00 | 0.00 | 91 | 1008.4 |
| 20260505053029 | 39 | 17 | 0.0 | 5.2 | 0.00 | 0.00 | 0.00 | 92 | 1008.7 |
| 20260505051528 | 39 | 18 | 0.0 | 1.7 | 0.00 | 0.00 | 0.00 | 91 | 1008.8 |
| 20260505041539 | 39 | 17 | 0.0 | 2.6 | 0.00 | 0.00 | 0.00 | 91 | 1008.5 |
| 20260505040022 | 40 | 18 | 0.9 | 2.6 | 0.00 | 0.00 | 0.00 | 90 | 1007.9 |